sensor_id;sensor_type;location;lat;lon;timestamp;temperature;humidity
17489;DHT22;8861;52.644;4.734;2022-11-15T07:16:08;10.20;99.90
17489;DHT22;8861;52.644;4.734;2022-11-15T07:18:36;10.10;99.90
17489;DHT22;8861;52.644;4.734;2022-11-15T07:21:05;10.10;99.90
17489;DHT22;8861;52.644;4.734;2022-11-15T07:23:33;10.10;99.90
17489;DHT22;8861;52.644;4.734;2022-11-15T07:26:00;10.00;99.90
17489;DHT22;8861;52.644;4.734;2022-11-15T07:28:27;10.00;99.90
17489;DHT22;8861;52.644;4.734;2022-11-15T07:30:54;10.00;99.90
17489;DHT22;8861;52.644;4.734;2022-11-15T07:33:22;10.00;99.90
17489;DHT22;8861;52.644;4.734;2022-11-15T07:35:49;10.00;99.90
17489;DHT22;8861;52.644;4.734;2022-11-15T07:38:16;9.90;99.90
17489;DHT22;8861;52.644;4.734;2022-11-15T07:40:45;9.90;99.90
17489;DHT22;8861;52.644;4.734;2022-11-15T07:43:12;9.90;99.90
17489;DHT22;8861;52.644;4.734;2022-11-15T07:45:43;9.90;99.90
17489;DHT22;8861;52.644;4.734;2022-11-15T07:48:11;9.80;99.90
17489;DHT22;8861;52.644;4.734;2022-11-15T07:50:42;9.80;99.90
17489;DHT22;8861;52.644;4.734;2022-11-15T07:53:09;9.80;99.90
17489;DHT22;8861;52.644;4.734;2022-11-15T07:55:37;9.80;99.90
17489;DHT22;8861;52.644;4.734;2022-11-15T07:58:05;9.80;99.90
17489;DHT22;8861;52.644;4.734;2022-11-15T08:00:33;9.80;99.90
17489;DHT22;8861;52.644;4.734;2022-11-15T08:03:04;9.90;99.90
17489;DHT22;8861;52.644;4.734;2022-11-15T08:05:31;9.90;99.90
17489;DHT22;8861;52.644;4.734;2022-11-15T08:07:59;9.90;99.90
17489;DHT22;8861;52.644;4.734;2022-11-15T08:10:26;10.00;99.90
17489;DHT22;8861;52.644;4.734;2022-11-15T08:12:58;10.20;99.90
17489;DHT22;8861;52.644;4.734;2022-11-15T08:15:25;10.30;99.90
17489;DHT22;8861;52.644;4.734;2022-11-15T08:17:55;10.40;99.90
17489;DHT22;8861;52.644;4.734;2022-11-15T08:20:23;10.50;99.90
17489;DHT22;8861;52.644;4.734;2022-11-15T08:22:50;10.60;99.90
17489;DHT22;8861;52.644;4.734;2022-11-15T08:25:18;10.70;99.90
17489;DHT22;8861;52.644;4.734;2022-11-15T08:27:45;10.80;99.90
17489;DHT22;8861;52.644;4.734;2022-11-15T08:30:12;11.00;99.90
17489;DHT22;8861;52.644;4.734;2022-11-15T08:32:41;11.10;99.90
17489;DHT22;8861;52.644;4.734;2022-11-15T08:35:08;11.10;99.90
17489;DHT22;8861;52.644;4.734;2022-11-15T08:37:35;10.90;99.90
17489;DHT22;8861;52.644;4.734;2022-11-15T08:40:03;10.90;99.90
17489;DHT22;8861;52.644;4.734;2022-11-15T08:42:31;10.80;99.90
17489;DHT22;8861;52.644;4.734;2022-11-15T08:44:58;10.70;99.90
17489;DHT22;8861;52.644;4.734;2022-11-15T08:47:25;10.60;99.90
17489;DHT22;8861;52.644;4.734;2022-11-15T08:49:52;10.60;99.90
17489;DHT22;8861;52.644;4.734;2022-11-15T08:52:19;10.60;99.90
17489;DHT22;8861;52.644;4.734;2022-11-15T08:54:46;10.60;99.90
17489;DHT22;8861;52.644;4.734;2022-11-15T08:57:13;10.60;99.90
17489;DHT22;8861;52.644;4.734;2022-11-15T08:59:41;10.70;99.90
17489;DHT22;8861;52.644;4.734;2022-11-15T09:02:11;10.70;99.90
17489;DHT22;8861;52.644;4.734;2022-11-15T09:04:40;10.80;99.90
17489;DHT22;8861;52.644;4.734;2022-11-15T09:07:07;10.90;99.90
17489;DHT22;8861;52.644;4.734;2022-11-15T09:09:34;11.00;99.90
17489;DHT22;8861;52.644;4.734;2022-11-15T09:12:01;11.00;99.90
17489;DHT22;8861;52.644;4.734;2022-11-15T09:14:28;11.10;99.90
17489;DHT22;8861;52.644;4.734;2022-11-15T09:16:56;11.10;99.90
17489;DHT22;8861;52.644;4.734;2022-11-15T09:19:23;11.20;99.90
17489;DHT22;8861;52.644;4.734;2022-11-15T09:21:50;11.30;99.90
17489;DHT22;8861;52.644;4.734;2022-11-15T09:24:17;11.30;99.90
17489;DHT22;8861;52.644;4.734;2022-11-15T09:26:44;11.30;99.90
17489;DHT22;8861;52.644;4.734;2022-11-15T09:29:11;11.40;99.90
17489;DHT22;8861;52.644;4.734;2022-11-15T09:31:38;11.30;99.90
17489;DHT22;8861;52.644;4.734;2022-11-15T09:34:06;11.40;99.90
17489;DHT22;8861;52.644;4.734;2022-11-15T09:36:33;11.50;99.90
17489;DHT22;8861;52.644;4.734;2022-11-15T09:39:00;11.50;99.90
17489;DHT22;8861;52.644;4.734;2022-11-15T09:41:46;11.60;99.90
17489;DHT22;8861;52.644;4.734;2022-11-15T09:44:41;11.70;99.90
17489;DHT22;8861;52.644;4.734;2022-11-15T09:47:29;11.80;99.90
17489;DHT22;8861;52.644;4.734;2022-11-15T09:50:06;11.90;99.90
17489;DHT22;8861;52.644;4.734;2022-11-15T09:52:35;12.00;99.90
17489;DHT22;8861;52.644;4.734;2022-11-15T09:55:07;12.20;99.90
17489;DHT22;8861;52.644;4.734;2022-11-15T09:57:39;12.20;99.90
17489;DHT22;8861;52.644;4.734;2022-11-15T10:00:13;12.40;99.90
17489;DHT22;8861;52.644;4.734;2022-11-15T10:02:52;12.40;99.90
17489;DHT22;8861;52.644;4.734;2022-11-15T10:05:26;12.50;99.90
17489;DHT22;8861;52.644;4.734;2022-11-15T10:07:58;12.50;99.90
17489;DHT22;8861;52.644;4.734;2022-11-15T10:10:32;12.50;99.90
17489;DHT22;8861;52.644;4.734;2022-11-15T10:13:02;12.60;99.90
17489;DHT22;8861;52.644;4.734;2022-11-15T10:15:30;12.60;99.90
17489;DHT22;8861;52.644;4.734;2022-11-15T10:18:15;12.60;99.90
17489;DHT22;8861;52.644;4.734;2022-11-15T10:20:48;12.60;99.90
17489;DHT22;8861;52.644;4.734;2022-11-15T10:23:17;12.50;99.90
17489;DHT22;8861;52.644;4.734;2022-11-15T10:25:45;12.60;99.90
17489;DHT22;8861;52.644;4.734;2022-11-15T10:28:16;12.50;99.90
17489;DHT22;8861;52.644;4.734;2022-11-15T10:30:46;12.60;99.90
17489;DHT22;8861;52.644;4.734;2022-11-15T10:33:24;12.60;99.90
17489;DHT22;8861;52.644;4.734;2022-11-15T10:36:17;12.70;99.90
17489;DHT22;8861;52.644;4.734;2022-11-15T10:38:57;12.70;99.90
17489;DHT22;8861;52.644;4.734;2022-11-15T10:41:34;12.70;99.90
17489;DHT22;8861;52.644;4.734;2022-11-15T10:44:12;12.70;99.90
17489;DHT22;8861;52.644;4.734;2022-11-15T10:46:45;12.70;99.90
17489;DHT22;8861;52.644;4.734;2022-11-15T10:49:15;12.70;99.90
17489;DHT22;8861;52.644;4.734;2022-11-15T10:51:46;12.70;99.90
17489;DHT22;8861;52.644;4.734;2022-11-15T10:54:18;12.60;99.90
17489;DHT22;8861;52.644;4.734;2022-11-15T10:56:49;12.60;99.90
17489;DHT22;8861;52.644;4.734;2022-11-15T10:59:23;12.50;99.90
17489;DHT22;8861;52.644;4.734;2022-11-15T11:01:50;12.50;99.90
17489;DHT22;8861;52.644;4.734;2022-11-15T11:04:17;12.50;99.90
17489;DHT22;8861;52.644;4.734;2022-11-15T11:06:51;12.50;99.90
17489;DHT22;8861;52.644;4.734;2022-11-15T11:09:30;12.50;99.90
17489;DHT22;8861;52.644;4.734;2022-11-15T11:11:58;12.50;99.90
17489;DHT22;8861;52.644;4.734;2022-11-15T11:14:26;12.50;99.90
17489;DHT22;8861;52.644;4.734;2022-11-15T11:17:03;12.50;99.90
17489;DHT22;8861;52.644;4.734;2022-11-15T11:19:39;12.50;99.90
17489;DHT22;8861;52.644;4.734;2022-11-15T11:22:16;12.50;99.90
17489;DHT22;8861;52.644;4.734;2022-11-15T11:24:48;12.40;99.90
17489;DHT22;8861;52.644;4.734;2022-11-15T11:27:25;12.40;99.90
17489;DHT22;8861;52.644;4.734;2022-11-15T11:30:09;12.40;99.90
17489;DHT22;8861;52.644;4.734;2022-11-15T11:32:52;12.50;99.90
17489;DHT22;8861;52.644;4.734;2022-11-15T11:35:24;12.50;99.90
17489;DHT22;8861;52.644;4.734;2022-11-15T11:38:01;12.50;99.90
17489;DHT22;8861;52.644;4.734;2022-11-15T11:40:34;12.60;99.90
17489;DHT22;8861;52.644;4.734;2022-11-15T11:43:08;12.60;99.90
17489;DHT22;8861;52.644;4.734;2022-11-15T11:45:59;12.50;99.90
17489;DHT22;8861;52.644;4.734;2022-11-15T11:48:40;12.50;99.90
17489;DHT22;8861;52.644;4.734;2022-11-15T11:51:13;12.50;99.90
17489;DHT22;8861;52.644;4.734;2022-11-15T11:53:48;12.50;99.90
17489;DHT22;8861;52.644;4.734;2022-11-15T11:56:22;12.60;99.90
17489;DHT22;8861;52.644;4.734;2022-11-15T11:58:53;12.60;99.90
17489;DHT22;8861;52.644;4.734;2022-11-15T12:01:23;12.60;99.90
17489;DHT22;8861;52.644;4.734;2022-11-15T12:03:55;12.70;99.90
17489;DHT22;8861;52.644;4.734;2022-11-15T12:06:30;12.60;99.90
17489;DHT22;8861;52.644;4.734;2022-11-15T12:09:02;12.70;99.90
17489;DHT22;8861;52.644;4.734;2022-11-15T12:11:37;12.70;99.90
17489;DHT22;8861;52.644;4.734;2022-11-15T12:14:16;12.70;99.90
17489;DHT22;8861;52.644;4.734;2022-11-15T12:16:47;12.80;99.90
17489;DHT22;8861;52.644;4.734;2022-11-15T12:19:14;12.80;99.90
17489;DHT22;8861;52.644;4.734;2022-11-15T12:21:45;12.80;99.90
17489;DHT22;8861;52.644;4.734;2022-11-15T12:24:18;12.90;99.90
17489;DHT22;8861;52.644;4.734;2022-11-15T12:26:50;12.90;99.90
17489;DHT22;8861;52.644;4.734;2022-11-15T12:29:23;13.00;99.90
17489;DHT22;8861;52.644;4.734;2022-11-15T12:31:53;13.10;99.90
17489;DHT22;8861;52.644;4.734;2022-11-15T12:34:44;13.10;99.90
17489;DHT22;8861;52.644;4.734;2022-11-15T12:37:41;13.10;99.90
17489;DHT22;8861;52.644;4.734;2022-11-15T12:40:34;13.20;99.90
17489;DHT22;8861;52.644;4.734;2022-11-15T12:46:18;13.20;99.90
17489;DHT22;8861;52.644;4.734;2022-11-15T12:48:55;13.20;99.90
17489;DHT22;8861;52.644;4.734;2022-11-15T12:54:51;13.20;99.90
17489;DHT22;8861;52.644;4.734;2022-11-15T12:57:42;13.10;99.90
17489;DHT22;8861;52.644;4.734;2022-11-15T13:00:42;13.10;99.90
17489;DHT22;8861;52.644;4.734;2022-11-15T13:03:21;13.00;99.90
17489;DHT22;8861;52.644;4.734;2022-11-15T13:06:09;13.00;99.90
17489;DHT22;8861;52.644;4.734;2022-11-15T13:08:45;13.00;99.90
17489;DHT22;8861;52.644;4.734;2022-11-15T13:11:49;12.90;99.90
17489;DHT22;8861;52.644;4.734;2022-11-15T13:14:46;12.90;99.90
17489;DHT22;8861;52.644;4.734;2022-11-15T13:20:23;12.90;99.90
17489;DHT22;8861;52.644;4.734;2022-11-15T13:22:59;12.90;99.90
17489;DHT22;8861;52.644;4.734;2022-11-15T13:25:55;12.90;99.90
17489;DHT22;8861;52.644;4.734;2022-11-15T13:28:30;12.90;99.90
17489;DHT22;8861;52.644;4.734;2022-11-15T13:31:00;12.90;99.90
17489;DHT22;8861;52.644;4.734;2022-11-15T13:33:32;13.00;99.90
17489;DHT22;8861;52.644;4.734;2022-11-15T13:36:02;12.90;99.90
17489;DHT22;8861;52.644;4.734;2022-11-15T13:38:31;13.00;99.90
17489;DHT22;8861;52.644;4.734;2022-11-15T13:40:59;13.00;99.90
17489;DHT22;8861;52.644;4.734;2022-11-15T13:43:31;13.00;99.90
17489;DHT22;8861;52.644;4.734;2022-11-15T13:46:13;13.00;99.90
17489;DHT22;8861;52.644;4.734;2022-11-15T13:48:40;12.90;99.90
17489;DHT22;8861;52.644;4.734;2022-11-15T13:51:15;12.90;99.90
17489;DHT22;8861;52.644;4.734;2022-11-15T13:53:45;12.90;99.90
17489;DHT22;8861;52.644;4.734;2022-11-15T13:56:13;12.80;99.90
17489;DHT22;8861;52.644;4.734;2022-11-15T13:58:41;12.80;99.90
17489;DHT22;8861;52.644;4.734;2022-11-15T14:01:15;12.80;99.90
17489;DHT22;8861;52.644;4.734;2022-11-15T14:03:49;12.80;99.90
17489;DHT22;8861;52.644;4.734;2022-11-15T14:06:20;12.80;99.90
17489;DHT22;8861;52.644;4.734;2022-11-15T14:11:53;12.80;99.90
17489;DHT22;8861;52.644;4.734;2022-11-15T14:14:21;12.70;99.90
17489;DHT22;8861;52.644;4.734;2022-11-15T14:16:52;12.70;99.90
17489;DHT22;8861;52.644;4.734;2022-11-15T14:19:37;12.70;99.90
17489;DHT22;8861;52.644;4.734;2022-11-15T14:22:16;12.70;99.90
17489;DHT22;8861;52.644;4.734;2022-11-15T14:24:44;12.60;99.90
17489;DHT22;8861;52.644;4.734;2022-11-15T14:27:19;12.60;99.90
17489;DHT22;8861;52.644;4.734;2022-11-15T14:29:47;12.50;99.90
17489;DHT22;8861;52.644;4.734;2022-11-15T14:32:17;12.50;99.90
17489;DHT22;8861;52.644;4.734;2022-11-15T14:34:45;12.40;99.90
17489;DHT22;8861;52.644;4.734;2022-11-15T14:37:20;12.40;99.90
17489;DHT22;8861;52.644;4.734;2022-11-15T14:39:48;12.30;99.90
17489;DHT22;8861;52.644;4.734;2022-11-15T14:42:15;12.30;99.90
17489;DHT22;8861;52.644;4.734;2022-11-15T14:44:42;12.30;99.90
17489;DHT22;8861;52.644;4.734;2022-11-15T14:47:09;12.30;99.90
17489;DHT22;8861;52.644;4.734;2022-11-15T14:49:38;12.30;99.90
17489;DHT22;8861;52.644;4.734;2022-11-15T14:52:23;12.20;99.90
17489;DHT22;8861;52.644;4.734;2022-11-15T14:54:50;12.20;99.90
17489;DHT22;8861;52.644;4.734;2022-11-15T14:57:18;12.20;99.90
17489;DHT22;8861;52.644;4.734;2022-11-15T14:59:45;12.20;99.90
17489;DHT22;8861;52.644;4.734;2022-11-15T15:02:16;12.30;99.90
17489;DHT22;8861;52.644;4.734;2022-11-15T15:04:44;12.20;99.90
17489;DHT22;8861;52.644;4.734;2022-11-15T15:07:11;12.20;99.90
17489;DHT22;8861;52.644;4.734;2022-11-15T15:09:38;12.30;99.90
17489;DHT22;8861;52.644;4.734;2022-11-15T15:12:15;12.20;99.90
17489;DHT22;8861;52.644;4.734;2022-11-15T15:14:43;12.20;99.90
17489;DHT22;8861;52.644;4.734;2022-11-15T15:17:09;12.20;99.90
17489;DHT22;8861;52.644;4.734;2022-11-15T15:19:36;12.10;99.90
17489;DHT22;8861;52.644;4.734;2022-11-15T15:22:05;12.10;99.90
17489;DHT22;8861;52.644;4.734;2022-11-15T15:24:32;12.10;99.90
17489;DHT22;8861;52.644;4.734;2022-11-15T15:26:59;12.10;99.90
17489;DHT22;8861;52.644;4.734;2022-11-15T15:29:26;12.00;99.90
17489;DHT22;8861;52.644;4.734;2022-11-15T15:31:53;12.00;99.90
17489;DHT22;8861;52.644;4.734;2022-11-15T15:34:20;12.00;99.90
17489;DHT22;8861;52.644;4.734;2022-11-15T15:36:46;12.00;99.90
17489;DHT22;8861;52.644;4.734;2022-11-15T15:39:15;12.00;99.90
17489;DHT22;8861;52.644;4.734;2022-11-15T15:41:41;11.90;99.90
17489;DHT22;8861;52.644;4.734;2022-11-15T15:44:08;11.90;99.90
17489;DHT22;8861;52.644;4.734;2022-11-15T15:46:35;11.90;99.90
17489;DHT22;8861;52.644;4.734;2022-11-15T15:49:02;11.90;99.90
17489;DHT22;8861;52.644;4.734;2022-11-15T15:51:29;11.90;99.90
17489;DHT22;8861;52.644;4.734;2022-11-15T15:53:56;11.80;99.90
17489;DHT22;8861;52.644;4.734;2022-11-15T15:56:25;11.80;99.90
17489;DHT22;8861;52.644;4.734;2022-11-15T15:58:53;11.80;99.90
17489;DHT22;8861;52.644;4.734;2022-11-15T16:01:21;11.80;99.90
17489;DHT22;8861;52.644;4.734;2022-11-15T16:03:47;11.80;99.90
17489;DHT22;8861;52.644;4.734;2022-11-15T16:06:41;11.80;99.90
17489;DHT22;8861;52.644;4.734;2022-11-15T16:09:13;11.80;99.90
17489;DHT22;8861;52.644;4.734;2022-11-15T16:11:42;11.80;99.90
17489;DHT22;8861;52.644;4.734;2022-11-15T16:14:09;11.80;99.90
17489;DHT22;8861;52.644;4.734;2022-11-15T16:16:36;11.90;99.90
17489;DHT22;8861;52.644;4.734;2022-11-15T16:19:03;11.80;99.90
17489;DHT22;8861;52.644;4.734;2022-11-15T16:21:30;11.90;99.90
17489;DHT22;8861;52.644;4.734;2022-11-15T16:23:57;11.80;99.90
17489;DHT22;8861;52.644;4.734;2022-11-15T16:26:27;11.90;99.90
17489;DHT22;8861;52.644;4.734;2022-11-15T16:28:56;11.90;99.90
17489;DHT22;8861;52.644;4.734;2022-11-15T16:31:24;11.90;99.90
17489;DHT22;8861;52.644;4.734;2022-11-15T16:33:51;11.90;99.90
17489;DHT22;8861;52.644;4.734;2022-11-15T16:36:20;11.90;99.90
17489;DHT22;8861;52.644;4.734;2022-11-15T16:38:48;11.90;99.90
17489;DHT22;8861;52.644;4.734;2022-11-15T16:41:15;12.00;99.90
17489;DHT22;8861;52.644;4.734;2022-11-15T16:43:44;12.00;99.90
17489;DHT22;8861;52.644;4.734;2022-11-15T16:46:18;12.00;99.90
17489;DHT22;8861;52.644;4.734;2022-11-15T16:48:45;12.00;99.90
17489;DHT22;8861;52.644;4.734;2022-11-15T16:51:13;12.00;99.90
17489;DHT22;8861;52.644;4.734;2022-11-15T16:53:40;12.00;99.90
17489;DHT22;8861;52.644;4.734;2022-11-15T16:56:18;12.00;99.90
17489;DHT22;8861;52.644;4.734;2022-11-15T16:58:46;11.90;99.90
17489;DHT22;8861;52.644;4.734;2022-11-15T17:01:18;11.80;99.90
17489;DHT22;8861;52.644;4.734;2022-11-15T17:03:46;11.80;99.90
17489;DHT22;8861;52.644;4.734;2022-11-15T17:06:13;11.70;99.90
17489;DHT22;8861;52.644;4.734;2022-11-15T17:08:43;11.60;99.90
17489;DHT22;8861;52.644;4.734;2022-11-15T17:11:14;11.50;99.90
17489;DHT22;8861;52.644;4.734;2022-11-15T17:13:41;11.50;99.90
17489;DHT22;8861;52.644;4.734;2022-11-15T17:16:11;11.40;99.90
17489;DHT22;8861;52.644;4.734;2022-11-15T17:18:40;11.30;99.90
17489;DHT22;8861;52.644;4.734;2022-11-15T17:21:12;11.30;99.90
17489;DHT22;8861;52.644;4.734;2022-11-15T17:23:39;11.20;99.90
17489;DHT22;8861;52.644;4.734;2022-11-15T17:26:06;11.10;99.90
17489;DHT22;8861;52.644;4.734;2022-11-15T17:28:34;11.00;99.90
17489;DHT22;8861;52.644;4.734;2022-11-15T17:31:01;11.00;99.90
17489;DHT22;8861;52.644;4.734;2022-11-15T17:33:27;10.90;99.90
17489;DHT22;8861;52.644;4.734;2022-11-15T17:35:57;10.90;99.90
17489;DHT22;8861;52.644;4.734;2022-11-15T17:38:24;10.90;99.90
17489;DHT22;8861;52.644;4.734;2022-11-15T17:41:02;10.80;99.90
17489;DHT22;8861;52.644;4.734;2022-11-15T17:43:30;10.80;99.90
17489;DHT22;8861;52.644;4.734;2022-11-15T17:45:58;10.80;99.90
17489;DHT22;8861;52.644;4.734;2022-11-15T17:48:25;10.70;99.90
17489;DHT22;8861;52.644;4.734;2022-11-15T17:50:57;10.70;99.90
17489;DHT22;8861;52.644;4.734;2022-11-15T17:53:25;10.70;99.90
17489;DHT22;8861;52.644;4.734;2022-11-15T17:55:52;10.70;99.90
17489;DHT22;8861;52.644;4.734;2022-11-15T17:58:20;10.70;99.90
17489;DHT22;8861;52.644;4.734;2022-11-15T18:00:47;10.70;99.90
17489;DHT22;8861;52.644;4.734;2022-11-15T18:03:14;10.70;99.90
17489;DHT22;8861;52.644;4.734;2022-11-15T18:05:41;10.70;99.90
17489;DHT22;8861;52.644;4.734;2022-11-15T18:08:11;10.70;99.90
17489;DHT22;8861;52.644;4.734;2022-11-15T18:10:39;10.70;99.90
17489;DHT22;8861;52.644;4.734;2022-11-15T18:13:06;10.70;99.90
17489;DHT22;8861;52.644;4.734;2022-11-15T18:15:34;10.60;99.90
17489;DHT22;8861;52.644;4.734;2022-11-15T18:18:00;10.60;99.90
17489;DHT22;8861;52.644;4.734;2022-11-15T18:20:27;10.60;99.90
17489;DHT22;8861;52.644;4.734;2022-11-15T18:22:54;10.60;99.90
17489;DHT22;8861;52.644;4.734;2022-11-15T18:25:22;10.60;99.90
17489;DHT22;8861;52.644;4.734;2022-11-15T18:27:49;10.60;99.90
17489;DHT22;8861;52.644;4.734;2022-11-15T18:30:20;10.60;99.90
17489;DHT22;8861;52.644;4.734;2022-11-15T18:32:47;10.60;99.90
17489;DHT22;8861;52.644;4.734;2022-11-15T18:35:14;10.60;99.90
17489;DHT22;8861;52.644;4.734;2022-11-15T18:37:41;10.50;99.90
17489;DHT22;8861;52.644;4.734;2022-11-15T18:40:08;10.50;99.90
17489;DHT22;8861;52.644;4.734;2022-11-15T18:42:37;10.50;99.90
17489;DHT22;8861;52.644;4.734;2022-11-15T18:45:04;10.50;99.90
17489;DHT22;8861;52.644;4.734;2022-11-15T18:47:32;10.50;99.90
17489;DHT22;8861;52.644;4.734;2022-11-15T18:49:59;10.50;99.90
17489;DHT22;8861;52.644;4.734;2022-11-15T18:52:26;10.50;99.90
17489;DHT22;8861;52.644;4.734;2022-11-15T18:54:53;10.60;99.90
17489;DHT22;8861;52.644;4.734;2022-11-15T18:57:20;10.50;99.90
17489;DHT22;8861;52.644;4.734;2022-11-15T18:59:48;10.60;99.90
17489;DHT22;8861;52.644;4.734;2022-11-15T19:02:15;10.60;99.90
17489;DHT22;8861;52.644;4.734;2022-11-15T19:04:42;10.60;99.90
17489;DHT22;8861;52.644;4.734;2022-11-15T19:07:09;10.60;99.90
17489;DHT22;8861;52.644;4.734;2022-11-15T19:09:36;10.60;99.90
17489;DHT22;8861;52.644;4.734;2022-11-15T19:12:04;10.60;99.90
17489;DHT22;8861;52.644;4.734;2022-11-15T19:14:31;10.60;99.90
17489;DHT22;8861;52.644;4.734;2022-11-15T19:16:59;10.60;99.90
17489;DHT22;8861;52.644;4.734;2022-11-15T19:19:26;10.60;99.90
17489;DHT22;8861;52.644;4.734;2022-11-15T19:21:54;10.60;99.90
17489;DHT22;8861;52.644;4.734;2022-11-15T19:24:22;10.70;99.90
17489;DHT22;8861;52.644;4.734;2022-11-15T19:26:49;10.70;99.90
17489;DHT22;8861;52.644;4.734;2022-11-15T19:29:16;10.70;99.90
17489;DHT22;8861;52.644;4.734;2022-11-15T19:31:43;10.70;99.90
17489;DHT22;8861;52.644;4.734;2022-11-15T19:34:13;10.70;99.90
17489;DHT22;8861;52.644;4.734;2022-11-15T19:36:42;10.70;99.90
17489;DHT22;8861;52.644;4.734;2022-11-15T19:39:10;10.80;99.90
17489;DHT22;8861;52.644;4.734;2022-11-15T19:41:38;10.80;99.90
17489;DHT22;8861;52.644;4.734;2022-11-15T19:44:07;10.80;99.90
17489;DHT22;8861;52.644;4.734;2022-11-15T19:46:34;10.80;99.90
17489;DHT22;8861;52.644;4.734;2022-11-15T19:49:02;10.80;99.90
17489;DHT22;8861;52.644;4.734;2022-11-15T19:51:33;10.80;99.90
17489;DHT22;8861;52.644;4.734;2022-11-15T19:54:01;10.80;99.90
17489;DHT22;8861;52.644;4.734;2022-11-15T19:56:31;10.80;99.90
17489;DHT22;8861;52.644;4.734;2022-11-15T19:58:59;10.90;99.90
17489;DHT22;8861;52.644;4.734;2022-11-15T20:01:27;10.90;99.90
17489;DHT22;8861;52.644;4.734;2022-11-15T20:03:57;10.90;99.90
17489;DHT22;8861;52.644;4.734;2022-11-15T20:06:25;10.90;99.90
17489;DHT22;8861;52.644;4.734;2022-11-15T20:08:54;10.90;99.90
17489;DHT22;8861;52.644;4.734;2022-11-15T20:11:21;10.90;99.90
17489;DHT22;8861;52.644;4.734;2022-11-15T20:13:48;11.00;99.90
17489;DHT22;8861;52.644;4.734;2022-11-15T20:16:17;11.00;99.90
17489;DHT22;8861;52.644;4.734;2022-11-15T20:18:45;11.00;99.90
17489;DHT22;8861;52.644;4.734;2022-11-15T20:21:12;11.00;99.90
17489;DHT22;8861;52.644;4.734;2022-11-15T20:23:39;11.00;99.90
17489;DHT22;8861;52.644;4.734;2022-11-15T20:26:09;11.00;99.90
17489;DHT22;8861;52.644;4.734;2022-11-15T20:28:37;11.00;99.90
17489;DHT22;8861;52.644;4.734;2022-11-15T20:31:05;11.10;99.90
17489;DHT22;8861;52.644;4.734;2022-11-15T20:33:33;11.00;99.90
17489;DHT22;8861;52.644;4.734;2022-11-15T20:36:02;11.10;99.90
17489;DHT22;8861;52.644;4.734;2022-11-15T20:38:30;11.10;99.90
17489;DHT22;8861;52.644;4.734;2022-11-15T20:40:57;11.10;99.90
17489;DHT22;8861;52.644;4.734;2022-11-15T20:43:26;11.10;99.90
17489;DHT22;8861;52.644;4.734;2022-11-15T20:45:53;11.10;99.90
17489;DHT22;8861;52.644;4.734;2022-11-15T20:48:21;11.10;99.90
17489;DHT22;8861;52.644;4.734;2022-11-15T20:50:48;11.20;99.90
17489;DHT22;8861;52.644;4.734;2022-11-15T20:53:17;11.10;99.90
17489;DHT22;8861;52.644;4.734;2022-11-15T20:55:45;11.10;99.90
17489;DHT22;8861;52.644;4.734;2022-11-15T20:58:13;11.20;99.90
17489;DHT22;8861;52.644;4.734;2022-11-15T21:00:42;11.20;99.90
17489;DHT22;8861;52.644;4.734;2022-11-15T21:03:09;11.20;99.90
17489;DHT22;8861;52.644;4.734;2022-11-15T21:05:37;11.20;99.90
17489;DHT22;8861;52.644;4.734;2022-11-15T21:08:05;11.20;99.90
17489;DHT22;8861;52.644;4.734;2022-11-15T21:10:32;11.30;99.90
17489;DHT22;8861;52.644;4.734;2022-11-15T21:13:17;11.30;99.90
17489;DHT22;8861;52.644;4.734;2022-11-15T21:15:45;11.30;99.90
17489;DHT22;8861;52.644;4.734;2022-11-15T21:18:13;11.30;99.90
17489;DHT22;8861;52.644;4.734;2022-11-15T21:20:40;11.40;99.90
17489;DHT22;8861;52.644;4.734;2022-11-15T21:23:07;11.40;99.90
17489;DHT22;8861;52.644;4.734;2022-11-15T21:25:34;11.40;99.90
17489;DHT22;8861;52.644;4.734;2022-11-15T21:28:01;11.40;99.90
17489;DHT22;8861;52.644;4.734;2022-11-15T21:30:28;11.40;99.90
17489;DHT22;8861;52.644;4.734;2022-11-15T21:32:56;11.40;99.90
17489;DHT22;8861;52.644;4.734;2022-11-15T21:35:23;11.40;99.90
17489;DHT22;8861;52.644;4.734;2022-11-15T21:37:50;11.50;99.90
17489;DHT22;8861;52.644;4.734;2022-11-15T21:40:17;11.50;99.90
17489;DHT22;8861;52.644;4.734;2022-11-15T21:42:44;11.50;99.90
17489;DHT22;8861;52.644;4.734;2022-11-15T21:45:11;11.50;99.90
17489;DHT22;8861;52.644;4.734;2022-11-15T21:47:38;11.50;99.90
17489;DHT22;8861;52.644;4.734;2022-11-15T21:50:07;11.50;99.90
17489;DHT22;8861;52.644;4.734;2022-11-15T21:52:34;11.50;99.90
17489;DHT22;8861;52.644;4.734;2022-11-15T21:55:01;11.50;99.90
17489;DHT22;8861;52.644;4.734;2022-11-15T21:57:28;11.60;99.90
17489;DHT22;8861;52.644;4.734;2022-11-15T21:59:55;11.60;99.90
17489;DHT22;8861;52.644;4.734;2022-11-15T22:02:39;11.60;99.90
17489;DHT22;8861;52.644;4.734;2022-11-15T22:05:08;11.60;99.90
17489;DHT22;8861;52.644;4.734;2022-11-15T22:07:35;11.60;99.90
17489;DHT22;8861;52.644;4.734;2022-11-15T22:10:02;11.70;99.90
17489;DHT22;8861;52.644;4.734;2022-11-15T22:12:29;11.70;99.90
17489;DHT22;8861;52.644;4.734;2022-11-15T22:14:56;11.70;99.90
17489;DHT22;8861;52.644;4.734;2022-11-15T22:17:23;11.70;99.90
17489;DHT22;8861;52.644;4.734;2022-11-15T22:20:11;11.70;99.90
17489;DHT22;8861;52.644;4.734;2022-11-15T22:22:38;11.70;99.90
17489;DHT22;8861;52.644;4.734;2022-11-15T22:25:06;11.80;99.90
17489;DHT22;8861;52.644;4.734;2022-11-15T22:27:33;11.80;99.90
17489;DHT22;8861;52.644;4.734;2022-11-15T22:30:00;11.80;99.90
17489;DHT22;8861;52.644;4.734;2022-11-15T22:32:26;11.80;99.90
17489;DHT22;8861;52.644;4.734;2022-11-15T22:34:53;11.80;99.90
17489;DHT22;8861;52.644;4.734;2022-11-15T22:37:21;11.80;99.90
17489;DHT22;8861;52.644;4.734;2022-11-15T22:39:48;11.80;99.90
17489;DHT22;8861;52.644;4.734;2022-11-15T22:42:15;11.80;99.90
17489;DHT22;8861;52.644;4.734;2022-11-15T22:44:42;11.80;99.90
17489;DHT22;8861;52.644;4.734;2022-11-15T22:47:09;11.80;99.90
17489;DHT22;8861;52.644;4.734;2022-11-15T22:49:36;11.80;99.90
17489;DHT22;8861;52.644;4.734;2022-11-15T22:52:03;11.80;99.90
17489;DHT22;8861;52.644;4.734;2022-11-15T22:54:31;11.80;99.90
17489;DHT22;8861;52.644;4.734;2022-11-15T22:56:58;11.80;99.90
17489;DHT22;8861;52.644;4.734;2022-11-15T22:59:25;11.90;99.90
17489;DHT22;8861;52.644;4.734;2022-11-15T23:01:52;11.90;99.90
17489;DHT22;8861;52.644;4.734;2022-11-15T23:04:19;11.90;99.90
17489;DHT22;8861;52.644;4.734;2022-11-15T23:06:46;11.90;99.90
17489;DHT22;8861;52.644;4.734;2022-11-15T23:09:13;11.90;99.90
17489;DHT22;8861;52.644;4.734;2022-11-15T23:11:41;11.90;99.90
17489;DHT22;8861;52.644;4.734;2022-11-15T23:14:25;11.90;99.90
17489;DHT22;8861;52.644;4.734;2022-11-15T23:16:52;11.90;99.90
17489;DHT22;8861;52.644;4.734;2022-11-15T23:19:19;11.90;99.90
17489;DHT22;8861;52.644;4.734;2022-11-15T23:21:46;11.90;99.90
17489;DHT22;8861;52.644;4.734;2022-11-15T23:24:31;11.90;99.90
17489;DHT22;8861;52.644;4.734;2022-11-15T23:27:02;11.90;99.90
17489;DHT22;8861;52.644;4.734;2022-11-15T23:29:29;11.90;99.90
17489;DHT22;8861;52.644;4.734;2022-11-15T23:31:56;11.90;99.90
17489;DHT22;8861;52.644;4.734;2022-11-15T23:34:42;11.90;99.90